Time;durP1;ratioP1;P1;durP2;ratioP2;P2;SDS_P1;SDS_P2;PMS_P1;PMS_P2;Temp;Humidity;BMP_temperature;BMP_pressure;BME280_temperature;BME280_humidity;BME280_pressure;Samples;Min_cycle;Max_cycle;Signal;HPM_P1;HPM_P2
2023/05/14 00:01:27;;;;;;;5.63;3.53;;;13.00;99.90;;;;;;4995238;28;20186;-85
2023/05/14 00:03:52;;;;;;;3.45;3.15;;;12.80;99.90;;;;;;4995010;28;20188;-82
2023/05/14 00:06:18;;;;;;;5.90;3.47;;;12.70;99.90;;;;;;4996293;28;20165;-82
2023/05/14 00:08:44;;;;;;;4.25;3.67;;;12.60;99.90;;;;;;5015960;28;20210;-82
2023/05/14 00:11:09;;;;;;;4.13;3.30;;;12.40;99.90;;;;;;5016198;28;20190;-84
2023/05/14 00:13:35;;;;;;;3.65;3.15;;;12.20;99.90;;;;;;5014700;28;20179;-84
2023/05/14 00:16:01;;;;;;;4.82;3.55;;;12.00;99.90;;;;;;5014699;28;20179;-84
2023/05/14 00:18:27;;;;;;;3.35;3.05;;;11.90;99.90;;;;;;5015661;28;20636;-83
2023/05/14 00:20:53;;;;;;;8.07;3.40;;;11.90;99.90;;;;;;5014384;28;20176;-82
2023/05/14 00:23:20;;;;;;;6.55;3.53;;;12.00;99.90;;;;;;5015320;28;20310;-84
2023/05/14 00:25:46;;;;;;;5.78;3.30;;;12.00;99.90;;;;;;5015740;28;20242;-84
2023/05/14 00:28:12;;;;;;;4.13;3.58;;;11.90;99.90;;;;;;5015597;28;20250;-84
2023/05/14 00:30:38;;;;;;;8.23;3.80;;;11.90;99.90;;;;;;5015462;28;20673;-84
2023/05/14 00:33:06;;;;;;;4.45;3.50;;;11.80;99.90;;;;;;5015207;28;20270;-84
2023/05/14 00:35:34;;;;;;;4.40;3.60;;;11.70;99.90;;;;;;5014475;28;20611;-84
2023/05/14 00:38:00;;;;;;;5.25;3.30;;;11.70;99.90;;;;;;5014227;28;20194;-84
2023/05/14 00:40:26;;;;;;;4.45;3.80;;;11.70;99.90;;;;;;5014459;28;20653;-82
2023/05/14 00:42:53;;;;;;;6.88;3.78;;;11.60;99.90;;;;;;5014066;28;20179;-84
2023/05/14 00:45:18;;;;;;;4.05;3.42;;;11.40;99.90;;;;;;5014254;28;20645;-84
2023/05/14 00:47:44;;;;;;;7.13;3.75;;;11.40;99.90;;;;;;5015355;28;20211;-84
2023/05/14 00:50:11;;;;;;;5.97;3.78;;;11.30;99.90;;;;;;5015169;28;20171;-84
2023/05/14 00:52:40;;;;;;;4.40;3.35;;;11.30;99.90;;;;;;5013815;28;20555;-82
2023/05/14 00:55:07;;;;;;;4.18;3.72;;;11.40;99.90;;;;;;5014124;28;20179;-84
2023/05/14 00:57:36;;;;;;;4.88;4.00;;;11.40;99.90;;;;;;5013484;28;20179;-84
2023/05/14 01:00:03;;;;;;;5.80;3.83;;;11.40;99.90;;;;;;5013746;28;20187;-84
2023/05/14 01:02:29;;;;;;;4.78;3.60;;;11.30;99.90;;;;;;5013720;28;20273;-83
2023/05/14 01:04:54;;;;;;;4.10;3.65;;;11.30;99.90;;;;;;5014025;28;20579;-84
2023/05/14 01:10:51;;;;;;;4.25;3.60;;;11.10;99.90;;;;;;5379804;22;20243;-83
2023/05/14 01:13:32;;;;;;;5.95;4.25;;;11.10;99.90;;;;;;5013642;28;20621;-82
2023/05/14 01:15:59;;;;;;;6.20;3.53;;;10.90;99.90;;;;;;5014128;28;20187;-82
2023/05/14 01:18:27;;;;;;;4.63;3.50;;;10.80;99.90;;;;;;5014286;28;20179;-82
2023/05/14 01:20:53;;;;;;;5.38;3.90;;;10.70;99.90;;;;;;5014836;28;20656;-82
2023/05/14 01:23:20;;;;;;;8.32;4.00;;;10.80;99.90;;;;;;5012985;28;20182;-82
2023/05/14 01:25:45;;;;;;;7.45;3.97;;;10.80;99.90;;;;;;5014530;28;20186;-82
2023/05/14 01:28:18;;;;;;;4.50;4.10;;;10.70;99.90;;;;;;5014782;28;20207;-82
2023/05/14 01:30:57;;;;;;;5.28;3.63;;;10.60;99.90;;;;;;5014659;28;20577;-82
2023/05/14 01:33:25;;;;;;;4.63;3.88;;;10.60;99.90;;;;;;5014538;28;20163;-82
2023/05/14 01:35:52;;;;;;;4.85;3.90;;;10.50;99.90;;;;;;5014585;28;20218;-82
2023/05/14 01:38:20;;;;;;;4.60;3.80;;;10.40;99.90;;;;;;5029363;28;20617;-82
2023/05/14 01:40:47;;;;;;;4.30;3.90;;;10.40;99.90;;;;;;5034132;28;20178;-82
2023/05/14 01:43:14;;;;;;;5.07;3.90;;;10.40;99.90;;;;;;5033960;28;20198;-82
2023/05/14 01:45:41;;;;;;;4.80;4.10;;;10.40;99.90;;;;;;5034104;28;20208;-83
2023/05/14 01:48:06;;;;;;;6.10;4.20;;;10.50;99.90;;;;;;5033968;28;20213;-83
2023/05/14 01:50:32;;;;;;;4.93;4.22;;;10.40;99.90;;;;;;5033967;28;20182;-83
2023/05/14 01:52:58;;;;;;;5.45;4.10;;;10.40;99.90;;;;;;5033703;28;20177;-83
2023/05/14 01:55:24;;;;;;;4.65;4.00;;;10.40;99.90;;;;;;5034064;28;20175;-81
2023/05/14 01:57:51;;;;;;;5.00;4.40;;;10.40;99.90;;;;;;5033667;28;20177;-84
2023/05/14 02:00:18;;;;;;;4.72;4.22;;;10.50;99.90;;;;;;5033869;28;20585;-84
2023/05/14 02:02:44;;;;;;;9.07;4.60;;;10.50;99.90;;;;;;5033589;28;20167;-83
2023/05/14 02:05:11;;;;;;;9.05;4.00;;;10.60;99.90;;;;;;5033623;28;20980;-83
2023/05/14 02:07:37;;;;;;;5.07;4.10;;;10.60;99.90;;;;;;5033540;28;20206;-82
2023/05/14 02:10:03;;;;;;;5.93;4.07;;;10.60;99.90;;;;;;5033497;28;20758;-81
2023/05/14 02:12:29;;;;;;;4.72;3.72;;;10.60;99.90;;;;;;5032260;28;20253;-82
2023/05/14 02:14:55;;;;;;;5.63;4.28;;;10.70;99.90;;;;;;5032569;28;20593;-82
2023/05/14 02:17:20;;;;;;;4.88;3.95;;;10.50;99.90;;;;;;5032452;28;20190;-82
2023/05/14 02:19:46;;;;;;;5.93;3.92;;;10.40;99.90;;;;;;5033644;28;20186;-82
2023/05/14 02:22:12;;;;;;;4.30;3.90;;;10.30;99.90;;;;;;5032402;28;20609;-81
2023/05/14 02:24:38;;;;;;;5.10;4.45;;;10.10;99.90;;;;;;5032405;28;20508;-83
2023/05/14 02:27:04;;;;;;;5.30;4.60;;;10.10;99.90;;;;;;5032059;28;20178;-83
2023/05/14 02:29:30;;;;;;;7.82;4.70;;;10.00;99.90;;;;;;5033363;28;20222;-83
2023/05/14 02:31:57;;;;;;;6.00;4.40;;;10.10;99.90;;;;;;5033545;28;20707;-84
2023/05/14 02:34:22;;;;;;;5.55;4.65;;;10.10;99.90;;;;;;5032239;28;20570;-82
2023/05/14 02:36:48;;;;;;;5.45;4.70;;;10.10;99.90;;;;;;5033529;28;20183;-83
2023/05/14 02:39:14;;;;;;;6.20;4.47;;;10.10;99.90;;;;;;5033250;28;20225;-84
2023/05/14 02:41:39;;;;;;;6.30;4.55;;;10.10;99.90;;;;;;5033287;28;20178;-83
2023/05/14 02:44:05;;;;;;;4.70;4.15;;;10.10;99.90;;;;;;5033142;28;20220;-82
2023/05/14 02:46:31;;;;;;;6.75;4.30;;;10.10;99.90;;;;;;5032151;28;20269;-82
2023/05/14 02:48:57;;;;;;;6.07;4.65;;;9.90;99.90;;;;;;5033167;28;20206;-82
2023/05/14 02:51:23;;;;;;;5.18;4.15;;;9.90;99.90;;;;;;5031965;28;20312;-82
2023/05/14 02:53:48;;;;;;;6.43;4.97;;;9.90;99.90;;;;;;5031931;28;20181;-81
2023/05/14 02:56:14;;;;;;;5.90;4.63;;;9.90;99.90;;;;;;5032990;28;20502;-81
2023/05/14 02:58:40;;;;;;;4.88;4.40;;;9.80;99.90;;;;;;5033403;28;20515;-82
2023/05/14 03:01:05;;;;;;;5.70;5.18;;;9.70;99.90;;;;;;5033252;28;20179;-81
2023/05/14 03:03:31;;;;;;;5.70;5.10;;;9.60;99.90;;;;;;5033196;28;20675;-84
2023/05/14 03:05:57;;;;;;;6.10;5.50;;;9.50;99.90;;;;;;5033389;28;20173;-83
2023/05/14 03:08:22;;;;;;;5.70;5.10;;;9.50;99.90;;;;;;5032745;28;20217;-83
2023/05/14 03:10:48;;;;;;;5.97;4.82;;;9.40;99.90;;;;;;5032897;28;20226;-83
2023/05/14 03:13:19;;;;;;;7.05;5.35;;;9.30;99.90;;;;;;5033132;28;20183;-83
2023/05/14 03:15:46;;;;;;;5.40;4.90;;;9.30;99.90;;;;;;5031971;28;20244;-83
2023/05/14 03:18:12;;;;;;;7.32;5.10;;;9.30;99.90;;;;;;5031993;28;20549;-82
2023/05/14 03:20:38;;;;;;;6.05;5.10;;;9.20;99.90;;;;;;5033147;28;20189;-82
2023/05/14 03:23:04;;;;;;;6.28;5.32;;;9.20;99.90;;;;;;5032746;28;20322;-82
2023/05/14 03:25:29;;;;;;;8.02;5.47;;;9.30;99.90;;;;;;5033229;28;20559;-82
2023/05/14 03:27:55;;;;;;;6.55;5.05;;;9.30;99.90;;;;;;5033029;28;20206;-81
2023/05/14 03:30:21;;;;;;;6.13;5.53;;;9.30;99.90;;;;;;5032914;28;20179;-81
2023/05/14 03:32:46;;;;;;;6.38;5.53;;;9.30;99.90;;;;;;5032673;28;20224;-82
2023/05/14 03:35:12;;;;;;;6.45;4.93;;;9.30;99.90;;;;;;5032701;28;20194;-82
2023/05/14 03:37:38;;;;;;;8.68;4.85;;;9.30;99.90;;;;;;5032801;28;20190;-81
2023/05/14 03:40:04;;;;;;;5.93;5.32;;;9.40;99.90;;;;;;5034123;28;20183;-82
2023/05/14 03:42:30;;;;;;;6.53;5.60;;;9.50;99.90;;;;;;5035199;28;20614;-82
2023/05/14 03:44:55;;;;;;;5.97;5.38;;;9.50;99.90;;;;;;5036565;28;20201;-81
2023/05/14 03:47:21;;;;;;;7.63;5.13;;;9.50;99.90;;;;;;5036289;28;20237;-81
2023/05/14 03:49:46;;;;;;;7.70;5.68;;;9.50;99.90;;;;;;5035128;28;20179;-81
2023/05/14 03:52:12;;;;;;;5.97;5.38;;;9.50;99.90;;;;;;5036115;28;20181;-82
2023/05/14 03:54:40;;;;;;;6.13;5.53;;;9.40;99.90;;;;;;5036018;28;20217;-81
2023/05/14 03:57:05;;;;;;;5.78;5.20;;;9.30;99.90;;;;;;5035016;28;20228;-82
2023/05/14 03:59:31;;;;;;;6.32;5.00;;;9.30;99.90;;;;;;5036118;28;20174;-82
2023/05/14 04:01:56;;;;;;;5.53;5.03;;;9.40;99.90;;;;;;5036064;28;20526;-82
2023/05/14 04:04:22;;;;;;;7.05;5.40;;;9.40;99.90;;;;;;5036104;28;20502;-81
2023/05/14 04:06:48;;;;;;;7.68;5.43;;;9.40;99.90;;;;;;5035965;28;20530;-82
2023/05/14 04:09:13;;;;;;;7.70;5.25;;;9.40;99.90;;;;;;5035473;28;20238;-82
2023/05/14 04:11:39;;;;;;;6.13;5.10;;;9.30;99.90;;;;;;5035030;28;20254;-82
2023/05/14 04:14:05;;;;;;;5.50;5.00;;;9.50;99.90;;;;;;5034569;28;20206;-81
2023/05/14 04:16:31;;;;;;;8.48;5.47;;;9.50;99.90;;;;;;5036011;28;20610;-82
2023/05/14 04:18:56;;;;;;;6.40;5.15;;;9.50;99.90;;;;;;5035529;28;20190;-82
2023/05/14 04:21:22;;;;;;;8.75;5.65;;;9.60;99.90;;;;;;5035706;28;20605;-82
2023/05/14 04:23:48;;;;;;;6.85;5.35;;;9.60;99.90;;;;;;5035357;28;20177;-81
2023/05/14 04:26:14;;;;;;;6.25;5.05;;;9.60;99.90;;;;;;5035542;28;20257;-82
2023/05/14 04:28:40;;;;;;;5.90;5.30;;;9.60;99.90;;;;;;5035490;28;20301;-82
2023/05/14 04:31:05;;;;;;;9.38;5.63;;;9.70;99.90;;;;;;5035350;28;20237;-82
2023/05/14 04:33:31;;;;;;;6.15;5.55;;;9.60;99.90;;;;;;5034247;28;20613;-82
2023/05/14 04:35:57;;;;;;;7.53;5.70;;;9.60;99.90;;;;;;5035655;28;20570;-82
2023/05/14 04:38:22;;;;;;;7.38;5.88;;;9.60;99.90;;;;;;5035138;28;20528;-82
2023/05/14 04:40:48;;;;;;;7.20;5.83;;;9.60;99.90;;;;;;5035186;28;20182;-81
2023/05/14 04:43:15;;;;;;;6.78;5.88;;;9.60;99.90;;;;;;5035155;28;20210;-82
2023/05/14 04:45:41;;;;;;;5.85;5.22;;;9.60;99.90;;;;;;5035431;28;20178;-82
2023/05/14 04:48:07;;;;;;;6.75;6.03;;;9.70;99.90;;;;;;5035152;28;20234;-81
2023/05/14 04:50:33;;;;;;;6.22;5.60;;;9.70;99.90;;;;;;5034854;28;20202;-81
2023/05/14 04:52:59;;;;;;;7.15;6.00;;;9.80;99.90;;;;;;5033528;28;20217;-82
2023/05/14 04:55:25;;;;;;;8.55;5.90;;;9.90;99.90;;;;;;5035198;28;20194;-81
2023/05/14 04:57:50;;;;;;;7.82;6.07;;;10.00;99.90;;;;;;5035202;28;20183;-82
2023/05/14 05:00:16;;;;;;;7.85;6.00;;;10.10;99.90;;;;;;5035077;28;20213;-82
2023/05/14 05:02:42;;;;;;;6.00;5.40;;;10.30;99.90;;;;;;5034901;28;20174;-82
2023/05/14 05:05:08;;;;;;;7.72;5.97;;;10.60;99.90;;;;;;5035061;28;20173;-82
2023/05/14 05:07:34;;;;;;;6.07;5.47;;;10.80;99.90;;;;;;5034857;28;20194;-82
2023/05/14 05:10:00;;;;;;;8.45;5.50;;;10.90;99.90;;;;;;5033255;28;20235;-82
2023/05/14 05:12:28;;;;;;;7.00;6.10;;;10.90;99.90;;;;;;5034712;28;20259;-82
2023/05/14 05:14:57;;;;;;;6.80;5.60;;;10.90;99.90;;;;;;5034857;28;20616;-82
2023/05/14 05:17:24;;;;;;;7.28;5.90;;;11.00;99.90;;;;;;5033547;28;20552;-82
2023/05/14 05:19:49;;;;;;;5.75;5.15;;;11.00;99.90;;;;;;5034523;28;20636;-82
2023/05/14 05:22:15;;;;;;;8.20;5.75;;;11.00;99.90;;;;;;5034538;28;20179;-82
2023/05/14 05:24:41;;;;;;;6.53;5.93;;;11.00;99.90;;;;;;5034533;28;20623;-82
2023/05/14 05:27:07;;;;;;;7.80;5.85;;;11.00;99.90;;;;;;5034472;28;20179;-82
2023/05/14 05:29:33;;;;;;;8.27;6.47;;;11.00;99.90;;;;;;5034469;28;20206;-82
2023/05/14 05:31:59;;;;;;;8.18;5.97;;;10.90;99.90;;;;;;5034220;28;20206;-82
2023/05/14 05:34:25;;;;;;;8.18;6.10;;;10.90;99.90;;;;;;5032956;28;20247;-82
2023/05/14 05:36:50;;;;;;;6.35;5.75;;;11.00;99.90;;;;;;5032959;28;20666;-82
2023/05/14 05:39:16;;;;;;;6.32;5.72;;;11.10;99.90;;;;;;5033822;28;20189;-82
2023/05/14 05:41:42;;;;;;;6.72;6.03;;;11.20;99.90;;;;;;5034059;28;20167;-82
2023/05/14 05:44:08;;;;;;;10.10;6.28;;;11.20;99.90;;;;;;5034223;28;20606;-82
2023/05/14 05:46:33;;;;;;;7.22;6.40;;;11.20;99.90;;;;;;5034234;28;20182;-82
2023/05/14 05:48:59;;;;;;;11.23;5.90;;;11.20;99.90;;;;;;5034169;28;20614;-82
2023/05/14 05:51:25;;;;;;;7.40;6.38;;;11.30;99.90;;;;;;5032689;28;20178;-83
2023/05/14 05:53:51;;;;;;;10.43;6.45;;;11.40;99.90;;;;;;5032493;28;20181;-82
2023/05/14 05:56:16;;;;;;;9.23;5.80;;;11.50;99.90;;;;;;5034075;28;20193;-82
2023/05/14 05:58:42;;;;;;;6.63;5.72;;;11.60;99.90;;;;;;5033011;28;20519;-83
2023/05/14 06:01:08;;;;;;;7.30;6.32;;;11.80;99.90;;;;;;5034070;28;20626;-82
2023/05/14 06:03:34;;;;;;;6.70;6.03;;;11.90;99.90;;;;;;5033185;28;20175;-82
2023/05/14 06:05:59;;;;;;;6.45;5.85;;;12.10;99.90;;;;;;5033929;28;20163;-82
2023/05/14 06:08:25;;;;;;;6.22;5.63;;;12.10;99.90;;;;;;5033244;28;20718;-82
2023/05/14 06:10:51;;;;;;;8.15;5.72;;;12.20;99.90;;;;;;5033385;28;20725;-82
2023/05/14 06:13:17;;;;;;;7.13;6.00;;;12.30;99.90;;;;;;5033749;28;20190;-82
2023/05/14 06:15:43;;;;;;;8.27;5.72;;;12.30;99.90;;;;;;5033876;28;20167;-82
2023/05/14 06:18:08;;;;;;;6.70;6.00;;;12.40;99.90;;;;;;5033735;28;20185;-82
2023/05/14 06:20:34;;;;;;;5.97;5.43;;;12.50;99.90;;;;;;5032272;28;20179;-83
2023/05/14 06:23:00;;;;;;;6.70;5.68;;;12.60;99.90;;;;;;5033315;28;20170;-82
2023/05/14 06:25:25;;;;;;;6.20;5.60;;;12.60;99.90;;;;;;5032381;28;20643;-82
2023/05/14 06:27:51;;;;;;;6.13;5.50;;;12.80;99.90;;;;;;5033227;28;20684;-81
2023/05/14 06:30:17;;;;;;;6.53;5.47;;;12.90;99.90;;;;;;5033369;28;20617;-82
2023/05/14 06:32:42;;;;;;;5.53;5.03;;;13.00;99.90;;;;;;5032097;28;20209;-81
2023/05/14 06:35:08;;;;;;;8.52;6.10;;;13.00;99.90;;;;;;5033653;28;20175;-82
2023/05/14 06:37:34;;;;;;;6.55;5.93;;;13.10;99.90;;;;;;5033563;28;20178;-81
2023/05/14 06:40:00;;;;;;;8.30;6.28;;;13.10;99.90;;;;;;5033242;28;20254;-82
2023/05/14 06:42:25;;;;;;;6.53;5.65;;;13.30;99.90;;;;;;5033312;28;20186;-82
2023/05/14 06:44:51;;;;;;;6.68;5.22;;;13.40;99.90;;;;;;5033300;28;20500;-84
2023/05/14 06:47:17;;;;;;;6.10;5.50;;;13.50;99.90;;;;;;5033370;28;20240;-84
2023/05/14 06:49:45;;;;;;;6.68;6.00;;;13.60;99.90;;;;;;5032809;28;20674;-84
2023/05/14 06:52:10;;;;;;;6.25;5.65;;;13.70;99.90;;;;;;5032109;28;20167;-83
2023/05/14 06:54:36;;;;;;;7.40;5.03;;;14.00;99.90;;;;;;5031373;28;20190;-84
2023/05/14 06:57:02;;;;;;;6.72;5.13;;;14.30;99.90;;;;;;5033158;28;20619;-83
2023/05/14 06:59:27;;;;;;;9.45;5.65;;;14.60;99.90;;;;;;5033793;28;20194;-81
2023/05/14 07:01:53;;;;;;;5.07;4.47;;;14.90;99.90;;;;;;5032239;28;20182;-84
2023/05/14 07:04:19;;;;;;;6.97;4.50;;;15.20;99.90;;;;;;5033095;28;20190;-84
2023/05/14 07:06:44;;;;;;;5.63;4.13;;;15.50;99.90;;;;;;5033526;28;20163;-84
2023/05/14 07:09:10;;;;;;;6.60;3.92;;;15.70;99.90;;;;;;5032697;28;20241;-84
2023/05/14 07:11:36;;;;;;;8.85;3.47;;;16.00;99.90;;;;;;5033599;28;20178;-84
2023/05/14 07:14:02;;;;;;;6.05;3.80;;;16.20;99.90;;;;;;5034565;28;20185;-83
2023/05/14 07:16:28;;;;;;;4.30;3.60;;;16.30;99.90;;;;;;5036790;28;20182;-83
2023/05/14 07:18:53;;;;;;;4.45;4.03;;;16.40;99.90;;;;;;5034660;28;20174;-82
2023/05/14 07:21:19;;;;;;;5.78;3.95;;;16.60;99.90;;;;;;5034703;28;20666;-83
2023/05/14 07:23:44;;;;;;;3.92;3.55;;;16.70;99.90;;;;;;5035216;28;20379;-84
2023/05/14 07:26:10;;;;;;;4.63;4.20;;;16.80;99.90;;;;;;5035561;28;20198;-83
2023/05/14 07:28:36;;;;;;;4.20;3.80;;;16.90;99.90;;;;;;5036144;28;20704;-83
2023/05/14 07:31:07;;;;;;;7.82;3.70;;;17.00;99.90;;;;;;5036392;28;20179;-83
2023/05/14 07:33:34;;;;;;;4.35;3.80;;;17.10;99.90;;;;;;5037077;28;20181;-83
2023/05/14 07:36:00;;;;;;;5.28;3.47;;;17.30;99.90;;;;;;5036700;28;20238;-84
2023/05/14 07:38:26;;;;;;;3.85;3.03;;;17.50;99.90;;;;;;5035239;28;20273;-81
2023/05/14 07:40:51;;;;;;;3.92;2.78;;;17.60;99.90;;;;;;5036646;28;20182;-84
2023/05/14 07:43:17;;;;;;;6.18;3.25;;;17.80;99.90;;;;;;5035994;28;20186;-83
2023/05/14 07:45:43;;;;;;;3.30;3.00;;;17.90;99.90;;;;;;5034953;28;20757;-82
2023/05/14 07:48:08;;;;;;;3.22;2.85;;;18.00;99.90;;;;;;5033343;28;20210;-84
2023/05/14 07:50:34;;;;;;;6.43;2.88;;;18.00;99.20;;;;;;5034953;28;20178;-84
2023/05/14 07:53:00;;;;;;;4.38;3.05;;;18.20;99.90;;;;;;5033668;28;20174;-82
2023/05/14 07:55:25;;;;;;;3.55;2.88;;;18.20;99.90;;;;;;5033987;28;20197;-84
2023/05/14 07:57:51;;;;;;;2.97;2.67;;;18.40;99.90;;;;;;5036464;28;20262;-84
2023/05/14 08:00:17;;;;;;;4.95;2.85;;;18.50;99.50;;;;;;5034114;28;20269;-83
2023/05/14 08:02:42;;;;;;;4.10;2.60;;;18.60;99.80;;;;;;5036080;28;20206;-85
2023/05/14 08:05:08;;;;;;;3.45;2.65;;;18.60;99.70;;;;;;5035376;28;20563;-84
2023/05/14 08:07:34;;;;;;;4.03;2.80;;;18.60;99.10;;;;;;5036089;28;20163;-82
2023/05/14 08:10:00;;;;;;;3.85;2.47;;;18.60;99.70;;;;;;5033636;28;20228;-83
2023/05/14 08:12:26;;;;;;;5.10;2.83;;;18.60;97.60;;;;;;5035773;28;21064;-82
2023/05/14 08:14:52;;;;;;;4.38;2.38;;;18.60;97.00;;;;;;5035091;28;20253;-82
2023/05/14 08:17:17;;;;;;;2.85;2.50;;;18.50;97.50;;;;;;5035767;28;20571;-81
2023/05/14 08:19:43;;;;;;;4.47;2.40;;;18.40;97.10;;;;;;5034195;28;20181;-83
2023/05/14 08:22:09;;;;;;;3.70;2.30;;;18.50;97.60;;;;;;5034817;28;20194;-84
2023/05/14 08:24:34;;;;;;;4.38;2.10;;;18.60;96.40;;;;;;5035682;28;20257;-83
2023/05/14 08:27:01;;;;;;;2.92;2.28;;;18.50;97.80;;;;;;5035241;28;20202;-83
2023/05/14 08:29:27;;;;;;;3.38;2.00;;;18.40;97.30;;;;;;5035567;28;20225;-82
2023/05/14 08:31:52;;;;;;;4.00;2.13;;;18.50;96.40;;;;;;5035547;28;20175;-83
2023/05/14 08:34:18;;;;;;;5.68;2.45;;;18.70;95.90;;;;;;5034373;28;20274;-83
2023/05/14 08:36:44;;;;;;;2.78;2.33;;;18.60;97.10;;;;;;5034513;28;21916;-81
2023/05/14 08:39:10;;;;;;;2.58;2.35;;;18.50;97.20;;;;;;5035553;28;20583;-82
2023/05/14 08:41:36;;;;;;;2.40;2.05;;;18.30;95.60;;;;;;5035469;28;20521;-83
2023/05/14 08:44:10;;;;;;;4.57;2.55;;;18.40;95.30;;;;;;5035419;28;20170;-82
2023/05/14 08:46:37;;;;;;;4.43;2.20;;;18.30;95.10;;;;;;5035470;28;20499;-84
2023/05/14 08:49:42;;;;;;;2.85;2.30;;;18.60;97.40;;;;;;5035364;28;20293;-80
2023/05/14 08:52:11;;;;;;;3.53;2.20;;;19.00;95.00;;;;;;5035119;28;20171;-84
2023/05/14 08:54:37;;;;;;;6.80;2.47;;;19.00;93.90;;;;;;5034850;28;20676;-81
2023/05/14 09:10:31;;;;;;;7.30;3.50;;;18.70;95.00;;;;;;4362554;28;20335;-83
2023/05/14 09:12:57;;;;;;;7.57;2.90;;;18.60;94.50;;;;;;5034858;28;20171;-83
2023/05/14 09:15:26;;;;;;;5.20;2.70;;;18.60;95.80;;;;;;5034706;28;20185;-83
2023/05/14 09:17:52;;;;;;;3.88;2.95;;;18.60;96.10;;;;;;5034913;28;20636;-82
2023/05/14 09:20:18;;;;;;;3.50;2.80;;;18.70;97.00;;;;;;5034181;28;20175;-83
2023/05/14 09:22:44;;;;;;;4.07;3.20;;;18.80;97.40;;;;;;5033997;28;20189;-83
2023/05/14 09:25:11;;;;;;;3.85;3.33;;;19.00;96.50;;;;;;5034674;28;20174;-82
2023/05/14 09:27:37;;;;;;;5.43;3.45;;;19.40;96.20;;;;;;5033273;28;20170;-81
2023/05/14 09:30:11;;;;;;;4.93;3.60;;;19.70;95.40;;;;;;5034625;28;20182;-81
2023/05/14 09:32:39;;;;;;;7.00;3.10;;;19.80;94.00;;;;;;5034286;28;20253;-80
2023/05/14 09:35:14;;;;;;;5.40;3.00;;;19.90;95.40;;;;;;5034539;28;20566;-80
2023/05/14 09:37:45;;;;;;;5.32;3.33;;;20.10;95.10;;;;;;5033250;28;20645;-81
2023/05/14 09:40:12;;;;;;;4.65;3.60;;;20.40;93.60;;;;;;5034287;28;20179;-80
2023/05/14 09:42:38;;;;;;;4.13;3.08;;;20.50;93.90;;;;;;5034202;28;20174;-82
2023/05/14 09:45:05;;;;;;;6.80;3.03;;;20.70;93.20;;;;;;5034545;28;20187;-82
2023/05/14 09:47:31;;;;;;;6.10;3.25;;;20.80;91.40;;;;;;5034218;28;20166;-81
2023/05/14 09:49:57;;;;;;;4.50;3.10;;;20.80;90.40;;;;;;5034100;28;20570;-83
2023/05/14 09:52:23;;;;;;;5.57;3.00;;;20.90;89.10;;;;;;5033812;28;20178;-81
2023/05/14 09:54:52;;;;;;;7.18;3.03;;;20.90;92.50;;;;;;5032098;28;20286;-82
2023/05/14 09:57:19;;;;;;;7.53;3.30;;;20.90;90.90;;;;;;5034070;28;20163;-81
2023/05/14 09:59:45;;;;;;;7.10;3.17;;;20.80;90.00;;;;;;5033941;28;20518;-81
2023/05/14 10:02:35;;;;;;;7.97;3.30;;;20.60;88.10;;;;;;5033861;28;20667;-80
2023/05/14 10:05:03;;;;;;;3.33;3.03;;;20.60;90.60;;;;;;5034079;28;20170;-81
2023/05/14 10:07:38;;;;;;;4.22;3.00;;;20.90;92.00;;;;;;5032182;28;20194;-81
2023/05/14 10:10:07;;;;;;;4.75;3.00;;;20.90;85.90;;;;;;5033907;28;20242;-81
2023/05/14 10:12:38;;;;;;;3.72;2.63;;;21.00;87.50;;;;;;5033573;28;20167;-80
2023/05/14 10:15:11;;;;;;;3.67;2.63;;;21.00;84.60;;;;;;5032913;28;20190;-81
2023/05/14 10:17:39;;;;;;;9.05;2.83;;;21.10;85.30;;;;;;5033874;28;20179;-81
2023/05/14 10:20:08;;;;;;;5.68;2.97;;;21.30;84.20;;;;;;5033103;28;20633;-81
2023/05/14 10:22:34;;;;;;;5.13;3.03;;;21.30;82.20;;;;;;5033325;28;20552;-80
2023/05/14 10:25:01;;;;;;;3.30;2.50;;;21.40;82.50;;;;;;5033617;28;20190;-82
2023/05/14 10:27:27;;;;;;;6.80;2.95;;;21.50;86.90;;;;;;5034017;28;20178;-81
2023/05/14 10:29:54;;;;;;;6.03;2.92;;;21.50;83.20;;;;;;5033654;28;20182;-81
2023/05/14 10:32:23;;;;;;;5.78;3.25;;;21.60;85.30;;;;;;5033425;28;20497;-81
2023/05/14 10:34:50;;;;;;;10.85;2.90;;;21.60;85.90;;;;;;5033807;28;20265;-80
2023/05/14 10:37:22;;;;;;;3.67;2.70;;;21.70;81.40;;;;;;5033344;28;20179;-81
2023/05/14 10:40:17;;;;;;;7.32;3.10;;;21.70;80.60;;;;;;5033392;28;20640;-80
2023/05/14 10:42:45;;;;;;;4.30;2.53;;;21.70;81.10;;;;;;5024292;28;20524;-82
2023/05/14 10:45:15;;;;;;;5.28;3.13;;;21.70;85.70;;;;;;5033524;28;20182;-81
2023/05/14 10:47:45;;;;;;;4.50;2.65;;;21.80;81.60;;;;;;5032030;28;20546;-80
2023/05/14 10:50:13;;;;;;;5.50;2.88;;;21.90;85.50;;;;;;5036654;28;20236;-81
2023/05/14 10:52:44;;;;;;;5.50;3.20;;;22.00;81.80;;;;;;5037134;28;20257;-80
2023/05/14 10:55:13;;;;;;;4.80;2.88;;;22.00;83.10;;;;;;5036203;28;20183;-80
2023/05/14 10:57:40;;;;;;;5.15;3.17;;;22.10;84.30;;;;;;5037444;28;20170;-81
2023/05/14 11:00:07;;;;;;;4.95;2.95;;;22.20;81.50;;;;;;5036040;28;20213;-80
2023/05/14 11:02:41;;;;;;;4.20;2.95;;;22.10;79.40;;;;;;5035847;28;20205;-80
2023/05/14 11:05:12;;;;;;;5.03;2.72;;;22.20;79.70;;;;;;5037357;28;20182;-80
2023/05/14 11:07:43;;;;;;;6.07;2.85;;;22.30;81.90;;;;;;5036972;28;20185;-80
2023/05/14 11:10:10;;;;;;;3.13;2.58;;;22.40;78.70;;;;;;5037027;28;20240;-81
2023/05/14 11:12:38;;;;;;;4.65;2.70;;;22.10;78.40;;;;;;5037062;28;20507;-80
2023/05/14 11:15:08;;;;;;;6.68;2.80;;;21.50;79.10;;;;;;5037305;28;20209;-81
2023/05/14 11:17:35;;;;;;;9.82;3.13;;;21.20;79.40;;;;;;5037132;28;20166;-79
2023/05/14 11:20:01;;;;;;;7.72;3.50;;;20.90;81.50;;;;;;5033599;28;20464;-80
2023/05/14 11:22:27;;;;;;;5.35;3.00;;;20.60;82.20;;;;;;5026241;28;20183;-80
2023/05/14 11:24:52;;;;;;;5.18;3.00;;;20.30;83.00;;;;;;5025195;28;20198;-80
2023/05/14 11:27:20;;;;;;;5.82;3.05;;;20.10;82.50;;;;;;5035724;28;20312;-80
2023/05/14 11:29:47;;;;;;;9.35;3.65;;;20.00;83.80;;;;;;5036670;28;20221;-80
2023/05/14 11:32:15;;;;;;;8.75;3.70;;;19.90;84.40;;;;;;5036774;28;20514;-79
2023/05/14 11:34:43;;;;;;;6.00;4.35;;;19.80;84.80;;;;;;5036971;28;20230;-80
2023/05/14 11:37:11;;;;;;;5.50;3.78;;;19.90;86.90;;;;;;5035302;28;20190;-79
2023/05/14 11:39:37;;;;;;;4.22;3.17;;;20.40;88.00;;;;;;5036580;28;20175;-80
2023/05/14 11:42:11;;;;;;;9.07;3.30;;;20.90;86.20;;;;;;5035465;28;20190;-80
2023/05/14 11:44:41;;;;;;;6.80;2.90;;;21.50;84.80;;;;;;5036557;28;20220;-80
2023/05/14 11:47:07;;;;;;;9.65;3.20;;;21.90;81.60;;;;;;5036514;28;20509;-81
2023/05/14 11:49:34;;;;;;;6.60;3.03;;;22.20;83.30;;;;;;5036278;28;20224;-80
2023/05/14 11:52:02;;;;;;;4.15;2.80;;;22.50;83.40;;;;;;5036328;28;20202;-80
2023/05/14 11:54:29;;;;;;;4.78;2.83;;;22.80;82.50;;;;;;5034696;28;20197;-79
2023/05/14 11:56:55;;;;;;;5.47;2.75;;;23.10;80.50;;;;;;5036261;28;20186;-79
2023/05/14 11:59:26;;;;;;;8.70;2.95;;;23.20;79.60;;;;;;5036327;28;20181;-80
2023/05/14 12:01:52;;;;;;;7.47;3.40;;;23.50;78.20;;;;;;5035027;28;20232;-81
2023/05/14 12:04:21;;;;;;;4.40;2.30;;;23.70;80.70;;;;;;5036026;28;20178;-81
2023/05/14 12:06:50;;;;;;;3.55;2.30;;;23.80;76.00;;;;;;5036117;28;20174;-81
2023/05/14 12:09:20;;;;;;;3.55;2.60;;;23.10;73.70;;;;;;5035493;28;20206;-82
2023/05/14 12:11:47;;;;;;;3.92;2.38;;;22.80;73.80;;;;;;5036070;28;20194;-81
2023/05/14 12:14:21;;;;;;;4.03;2.58;;;22.50;75.90;;;;;;5035932;28;20253;-81
2023/05/14 12:16:48;;;;;;;5.25;2.45;;;22.50;78.40;;;;;;5035804;28;20261;-81
2023/05/14 12:19:15;;;;;;;5.15;2.50;;;22.20;76.90;;;;;;5036198;28;20178;-80
2023/05/14 12:21:43;;;;;;;3.38;2.60;;;21.90;77.80;;;;;;5035784;28;20667;-81
2023/05/14 12:24:14;;;;;;;4.80;2.75;;;21.70;78.80;;;;;;5035504;28;20224;-80
2023/05/14 12:26:44;;;;;;;6.18;2.75;;;21.50;79.70;;;;;;5034701;28;20182;-80
2023/05/14 12:29:12;;;;;;;4.30;2.70;;;21.30;79.10;;;;;;5035526;28;20210;-80
2023/05/14 12:31:46;;;;;;;4.85;3.10;;;21.30;80.90;;;;;;5034477;28;20186;-80
2023/05/14 12:34:11;;;;;;;5.25;2.88;;;21.30;78.40;;;;;;5035638;28;20174;-80
2023/05/14 12:36:37;;;;;;;6.18;2.70;;;21.10;79.80;;;;;;5035840;28;20617;-80
2023/05/14 12:39:04;;;;;;;7.85;2.75;;;20.90;81.30;;;;;;5035627;28;20197;-80
2023/05/14 12:41:31;;;;;;;7.65;2.95;;;20.90;84.20;;;;;;5035602;28;20520;-80
2023/05/14 12:43:57;;;;;;;5.65;3.33;;;20.80;82.60;;;;;;5034248;28;20189;-80
2023/05/14 12:46:25;;;;;;;5.35;2.75;;;20.80;82.80;;;;;;5035406;28;20485;-80
2023/05/14 12:48:50;;;;;;;7.43;2.75;;;20.90;80.80;;;;;;5035223;28;20210;-83
2023/05/14 12:51:16;;;;;;;5.18;3.10;;;20.90;83.40;;;;;;5035319;28;20171;-80
2023/05/14 12:53:42;;;;;;;5.68;2.70;;;20.90;82.10;;;;;;5035139;28;20210;-80
2023/05/14 12:56:08;;;;;;;4.18;2.60;;;20.90;81.20;;;;;;5035250;28;20186;-81
2023/05/14 12:58:33;;;;;;;7.13;2.97;;;20.80;84.10;;;;;;5035130;28;20171;-80
2023/05/14 13:00:59;;;;;;;6.47;2.85;;;20.40;84.20;;;;;;5034906;28;20179;-83
2023/05/14 13:03:25;;;;;;;5.75;2.75;;;20.10;89.50;;;;;;5034799;28;20170;-85